Time;durP1;ratioP1;P1;durP2;ratioP2;P2;SDS_P1;SDS_P2;PMS_P1;PMS_P2;Temp;Humidity;BMP_temperature;BMP_pressure;BME280_temperature;BME280_humidity;BME280_pressure;Samples;Min_cycle;Max_cycle;Signal;HPM_P1;HPM_P2
2022/04/18 00:01:07;;;;;;;1.90;1.57;;;;;;;7.32;48.19;99419.28;5113280;28;40748;-76
2022/04/18 00:03:35;;;;;;;1.53;1.43;;;;;;;7.29;47.95;99419.44;5114162;28;43616;-76
2022/04/18 00:06:04;;;;;;;1.70;1.47;;;;;;;7.26;48.31;99419.56;5095915;28;41355;-75
2022/04/18 00:08:32;;;;;;;2.43;1.87;;;;;;;7.19;48.30;99413.66;5096211;28;39156;-76
2022/04/18 00:10:59;;;;;;;1.70;1.43;;;;;;;7.17;48.52;99415.50;5112997;28;41602;-76
2022/04/18 00:13:27;;;;;;;2.60;1.40;;;;;;;7.06;48.51;99408.94;5095797;28;43322;-75
2022/04/18 00:15:55;;;;;;;2.43;1.90;;;;;;;7.03;49.41;99396.78;5095902;28;42241;-76
2022/04/18 00:18:23;;;;;;;1.73;1.57;;;;;;;7.04;48.96;99419.56;5113076;28;38784;-75
2022/04/18 00:20:50;;;;;;;1.90;1.63;;;;;;;7.01;50.50;99403.00;5112492;28;41708;-77
2022/04/18 00:23:19;;;;;;;2.07;1.87;;;;;;;6.97;50.49;99396.13;5112910;28;42892;-75
2022/04/18 00:25:47;;;;;;;2.40;2.00;;;;;;;6.93;52.11;99394.53;5112493;28;41227;-75
2022/04/18 00:28:15;;;;;;;1.60;1.50;;;;;;;6.92;51.20;99398.13;5114473;27;40050;-76
2022/04/18 00:30:43;;;;;;;2.27;1.83;;;;;;;6.74;51.97;99382.09;5095979;28;40739;-76
2022/04/18 00:33:11;;;;;;;2.03;1.70;;;;;;;6.85;51.31;99403.59;5113466;28;42574;-75
2022/04/18 00:35:38;;;;;;;2.00;1.70;;;;;;;6.83;50.93;99401.94;5112476;28;42261;-76
2022/04/18 00:38:06;;;;;;;4.13;2.10;;;;;;;6.79;52.06;99393.31;5112326;28;40020;-75
2022/04/18 00:40:35;;;;;;;1.70;1.60;;;;;;;6.78;51.76;99390.75;5113843;28;41902;-75
2022/04/18 00:43:03;;;;;;;1.87;1.63;;;;;;;6.75;51.54;99389.09;5129500;27;42671;-76
2022/04/18 00:45:31;;;;;;;2.73;2.03;;;;;;;6.73;51.68;99396.16;5112344;28;44118;-77
2022/04/18 00:47:59;;;;;;;2.20;2.00;;;;;;;6.70;51.59;99396.28;5112241;28;40998;-75
2022/04/18 00:50:29;;;;;;;2.27;1.60;;;;;;;6.50;52.48;99359.34;5112490;28;41391;-76
2022/04/18 00:52:57;;;;;;;2.13;1.90;;;;;;;6.64;52.21;99383.38;5112609;28;42655;-75
2022/04/18 00:55:27;;;;;;;2.07;1.87;;;;;;;6.59;51.83;99380.03;5095200;28;40988;-77
2022/04/18 00:57:57;;;;;;;2.57;1.77;;;;;;;6.51;52.67;99370.75;5111934;28;40017;-76
2022/04/18 01:00:25;;;;;;;2.03;1.57;;;;;;;6.48;52.88;99361.19;5113315;28;42602;-76
2022/04/18 01:02:52;;;;;;;2.27;1.70;;;;;;;6.42;53.17;99361.44;5094883;28;43498;-76
2022/04/18 01:05:21;;;;;;;2.17;1.63;;;;;;;6.50;53.00;99375.13;5112188;28;42207;-76
2022/04/18 01:07:48;;;;;;;2.37;1.83;;;;;;;6.49;52.82;99378.69;5129326;27;41229;-77
2022/04/18 01:10:16;;;;;;;2.07;1.80;;;;;;;6.48;53.04;99369.94;5129441;27;41749;-76
2022/04/18 01:12:44;;;;;;;3.00;1.83;;;;;;;6.46;52.67;99378.78;5111862;28;43554;-76
2022/04/18 01:15:32;;;;;;;2.13;1.80;;;;;;;6.43;53.40;99368.38;5095065;28;41331;-74
2022/04/18 01:18:11;;;;;;;2.03;1.43;;;;;;;6.42;53.36;99374.59;5094921;28;41462;-75
2022/04/18 01:20:59;;;;;;;2.17;1.63;;;;;;;6.39;53.47;99366.78;5112026;28;40947;-76
2022/04/18 01:23:47;;;;;;;2.03;1.70;;;;;;;6.34;53.89;99358.19;5129052;27;43622;-76
2022/04/18 01:29:13;;;;;;;4.20;1.93;;;;;;;6.34;54.95;99353.81;5094498;28;39942;-75
2022/04/18 01:31:44;;;;;;;5.00;2.00;;;;;;;6.31;54.73;99359.16;5095001;28;43427;-76
2022/04/18 01:34:12;;;;;;;3.77;1.80;;;;;;;6.34;55.60;99350.31;5111737;28;42702;-75
2022/04/18 01:36:40;;;;;;;2.57;1.80;;;;;;;6.33;55.41;99346.81;5111097;28;43226;-77
2022/04/18 01:39:12;;;;;;;1.93;1.70;;;;;;;6.33;55.30;99351.22;5111099;28;40117;-75
2022/04/18 01:41:39;;;;;;;2.27;1.90;;;;;;;6.31;56.04;99342.53;5094543;28;40570;-76
2022/04/18 01:44:08;;;;;;;2.10;1.60;;;;;;;6.30;55.27;99348.72;5111289;28;43789;-74
2022/04/18 01:46:35;;;;;;;2.53;2.10;;;;;;;6.24;55.15;99339.28;5111730;28;42230;-76
2022/04/18 01:49:03;;;;;;;1.53;1.43;;;;;;;6.25;55.29;99340.16;5094244;28;41030;-76
2022/04/18 01:51:31;;;;;;;2.10;1.50;;;;;;;6.26;55.15;99347.13;5094064;28;42074;-77
2022/04/18 01:54:04;;;;;;;2.13;1.60;;;;;;;6.23;55.48;99339.34;5110630;28;42951;-76
2022/04/18 01:56:32;;;;;;;2.17;1.80;;;;;;;5.97;54.94;99304.34;5111490;28;42047;-76
2022/04/18 01:59:01;;;;;;;3.30;1.90;;;;;;;6.18;54.85;99341.31;5111204;28;40721;-77
2022/04/18 02:01:30;;;;;;;3.33;1.80;;;;;;;6.13;55.12;99339.69;5094199;28;40892;-75
2022/04/18 02:03:58;;;;;;;1.67;1.57;;;;;;;6.12;55.57;99337.97;5094019;28;42741;-76
2022/04/18 02:06:26;;;;;;;4.27;1.70;;;;;;;6.09;55.02;99330.19;5111487;28;43171;-75
2022/04/18 02:08:54;;;;;;;2.17;1.80;;;;;;;6.06;54.89;99337.31;5111148;28;40134;-75
2022/04/18 02:11:26;;;;;;;2.30;1.90;;;;;;;6.03;55.73;99332.19;5108255;28;41767;-75
2022/04/18 02:13:56;;;;;;;2.60;1.67;;;;;;;6.00;55.48;99327.91;5093815;28;43318;-76
2022/04/18 02:16:24;;;;;;;2.20;1.90;;;;;;;5.97;55.67;99330.63;5093764;28;41197;-77
2022/04/18 02:18:54;;;;;;;1.40;1.30;;;;;;;5.90;55.11;99321.28;5093275;28;40657;-76
2022/04/18 02:21:23;;;;;;;1.73;1.50;;;;;;;5.88;55.29;99323.09;5092536;28;40722;-75
2022/04/18 02:23:51;;;;;;;1.93;1.67;;;;;;;5.86;55.83;99319.63;5090334;28;43791;-77
2022/04/18 02:26:19;;;;;;;2.03;1.80;;;;;;;5.83;55.33;99318.88;5090576;28;41230;-76
2022/04/18 02:28:54;;;;;;;1.83;1.67;;;;;;;5.75;55.02;99316.53;5073760;28;39274;-76
2022/04/18 02:31:21;;;;;;;2.70;1.50;;;;;;;5.73;54.75;99316.56;5073519;28;41574;-75
2022/04/18 02:33:49;;;;;;;3.10;1.50;;;;;;;5.69;54.70;99316.72;5073346;28;41787;-75
2022/04/18 02:36:18;;;;;;;2.67;1.47;;;;;;;5.63;54.94;99312.56;5073481;28;42133;-75
2022/04/18 02:38:46;;;;;;;1.70;1.53;;;;;;;5.58;54.76;99303.97;5073188;28;39979;-75
2022/04/18 02:41:14;;;;;;;1.73;1.53;;;;;;;5.55;55.00;99303.25;5091414;28;42759;-76
2022/04/18 02:43:42;;;;;;;2.00;1.80;;;;;;;5.52;55.67;99308.59;5090132;28;43775;-76
2022/04/18 02:46:15;;;;;;;2.20;2.00;;;;;;;5.49;56.07;99292.94;5087320;28;42263;-76
2022/04/18 02:48:47;;;;;;;1.77;1.67;;;;;;;5.44;55.89;99289.63;5075676;28;39020;-76
2022/04/18 02:51:17;;;;;;;2.77;2.07;;;;;;;5.44;55.88;99294.88;5094237;28;42789;-76
2022/04/18 02:53:45;;;;;;;2.43;1.80;;;;;;;5.33;55.61;99282.94;5093583;28;41716;-76
2022/04/18 02:56:13;;;;;;;1.80;1.70;;;;;;;5.38;56.10;99291.53;5076922;28;41150;-75
2022/04/18 02:58:49;;;;;;;2.23;1.70;;;;;;;5.35;56.44;99280.28;5076702;28;40203;-76
2022/04/18 03:01:18;;;;;;;4.33;1.93;;;;;;;5.17;56.89;99250.28;5076672;28;41752;-76
2022/04/18 03:03:47;;;;;;;1.63;1.40;;;;;;;5.31;57.26;99266.41;5110744;28;42771;-76
2022/04/18 03:06:15;;;;;;;2.30;1.83;;;;;;;5.29;57.16;99273.47;5076460;28;42725;-76
2022/04/18 03:08:43;;;;;;;1.63;1.53;;;;;;;5.28;56.71;99273.53;5076568;28;40030;-76
2022/04/18 03:11:10;;;;;;;2.53;2.07;;;;;;;5.25;56.47;99271.88;5076548;28;40596;-75
2022/04/18 03:13:44;;;;;;;2.57;2.30;;;;;;;5.16;56.12;99259.06;5093110;28;43483;-76
2022/04/18 03:16:20;;;;;;;2.03;1.50;;;;;;;5.10;55.84;99264.50;5076469;28;41284;-75
2022/04/18 03:18:48;;;;;;;3.13;1.63;;;;;;;5.11;55.97;99281.97;5076005;28;39220;-75
2022/04/18 03:21:16;;;;;;;1.97;1.47;;;;;;;5.05;55.87;99277.81;5090378;28;42635;-75
2022/04/18 03:23:45;;;;;;;1.80;1.40;;;;;;;5.03;55.77;99286.63;5093141;28;42774;-76
2022/04/18 03:26:32;;;;;;;2.00;1.43;;;;;;;4.96;56.17;99285.97;5091414;28;42797;-76
2022/04/18 03:29:20;;;;;;;2.20;1.43;;;;;;;4.92;57.44;99270.38;5110068;28;40466;-75
2022/04/18 03:31:50;;;;;;;2.37;1.80;;;;;;;4.88;58.28;99260.88;5097192;28;40847;-76
2022/04/18 03:34:26;;;;;;;2.00;1.60;;;;;;;4.86;58.28;99265.31;5096181;28;43181;-76
2022/04/18 03:39:52;;;;;;;1.90;1.70;;;;;;;4.82;58.80;99264.56;5096450;28;38693;-75
2022/04/18 03:42:31;;;;;;;2.27;1.67;;;;;;;4.82;58.50;99268.97;5096390;28;40874;-75
2022/04/18 03:45:04;;;;;;;3.93;2.00;;;;;;;4.82;59.34;99259.31;5110498;28;42880;-76
2022/04/18 03:47:34;;;;;;;1.77;1.67;;;;;;;4.83;59.48;99254.91;5113621;28;43172;-75
2022/04/18 03:50:03;;;;;;;2.63;1.80;;;;;;;4.83;59.45;99261.03;5096875;28;38499;-76
2022/04/18 03:52:35;;;;;;;2.13;1.57;;;;;;;4.84;60.37;99256.63;5096590;28;41285;-76
2022/04/18 03:55:03;;;;;;;2.67;1.77;;;;;;;4.85;59.81;99255.72;5096293;28;41813;-76
2022/04/18 03:57:36;;;;;;;1.63;1.53;;;;;;;4.84;59.54;99251.38;5096028;28;42357;-76
2022/04/18 04:00:09;;;;;;;2.87;1.77;;;;;;;4.84;59.59;99248.75;5109511;27;40837;-76
2022/04/18 04:02:44;;;;;;;1.73;1.47;;;;;;;4.83;59.46;99249.66;5112994;28;40780;-76
2022/04/18 04:05:16;;;;;;;2.60;1.93;;;;;;;4.83;59.45;99254.91;5096031;28;41763;-75
2022/04/18 04:07:47;;;;;;;2.07;1.80;;;;;;;4.83;59.52;99252.28;5095374;28;41339;-75
2022/04/18 04:10:25;;;;;;;2.20;2.00;;;;;;;4.82;59.08;99255.84;5109713;28;39996;-76
2022/04/18 04:12:53;;;;;;;1.77;1.67;;;;;;;4.74;59.18;99250.84;5095341;28;41906;-77
2022/04/18 04:15:54;;;;;;;1.77;1.67;;;;;;;4.78;59.87;99254.22;5089767;28;41619;-76
2022/04/18 04:18:27;;;;;;;2.77;1.67;;;;;;;4.78;59.93;99251.59;5095671;28;41648;-75
2022/04/18 04:20:59;;;;;;;2.03;1.80;;;;;;;4.76;59.56;99253.41;5095868;28;40434;-74
2022/04/18 04:23:27;;;;;;;2.27;1.77;;;;;;;4.77;59.40;99260.38;5112250;28;40907;-76
2022/04/18 04:26:05;;;;;;;3.30;1.93;;;;;;;4.63;60.14;99231.97;5099325;27;43288;-75
2022/04/18 04:28:54;;;;;;;1.53;1.33;;;;;;;4.75;59.52;99256.94;5132224;27;41974;-75
2022/04/18 04:31:27;;;;;;;2.23;1.70;;;;;;;4.75;59.28;99251.69;5116228;27;39537;-75
2022/04/18 04:33:58;;;;;;;1.70;1.60;;;;;;;4.74;59.38;99250.84;5115446;27;40638;-75
2022/04/18 04:36:27;;;;;;;1.63;1.50;;;;;;;4.74;59.62;99249.97;5116218;27;42420;-75
2022/04/18 04:38:57;;;;;;;2.33;1.80;;;;;;;4.73;59.28;99250.88;5133249;27;42984;-76
2022/04/18 04:41:44;;;;;;;2.67;1.50;;;;;;;4.72;58.89;99247.41;5116214;27;39585;-77
2022/04/18 04:44:12;;;;;;;3.33;1.60;;;;;;;4.70;59.28;99252.69;5132843;27;42343;-76
2022/04/18 04:46:59;;;;;;;1.93;1.60;;;;;;;4.49;58.96;99224.53;5132089;27;43570;-75
2022/04/18 04:49:31;;;;;;;2.30;1.70;;;;;;;4.71;58.76;99256.19;5115168;27;44193;-75
2022/04/18 04:52:22;;;;;;;2.60;1.87;;;;;;;4.74;58.40;99255.22;5112902;27;39942;-75
2022/04/18 04:54:52;;;;;;;2.10;1.40;;;;;;;4.75;58.78;99251.69;5115701;27;41712;-75
2022/04/18 04:57:34;;;;;;;2.60;1.93;;;;;;;4.79;58.53;99259.44;5129839;27;42677;-76
2022/04/18 05:00:25;;;;;;;3.07;1.90;;;;;;;4.83;58.48;99249.66;5115983;27;42444;-75
2022/04/18 05:03:10;;;;;;;3.97;2.40;;;;;;;4.92;58.26;99254.63;5115376;27;38862;-76
2022/04/18 05:05:41;;;;;;;1.77;1.67;;;;;;;4.99;58.34;99256.13;5115606;27;40557;-76
2022/04/18 05:08:19;;;;;;;2.93;1.53;;;;;;;5.07;57.98;99254.97;5115341;27;42870;-75
2022/04/18 05:10:47;;;;;;;2.87;1.50;;;;;;;5.16;58.08;99252.94;5115127;27;42188;-76
2022/04/18 05:13:23;;;;;;;1.63;1.53;;;;;;;5.26;58.38;99252.56;5130327;27;40491;-75
2022/04/18 05:15:51;;;;;;;1.90;1.60;;;;;;;5.33;58.06;99254.06;5115424;27;41118;-76
2022/04/18 05:18:48;;;;;;;1.90;1.50;;;;;;;5.44;57.82;99250.22;5096011;27;41854;-75
2022/04/18 05:21:17;;;;;;;1.97;1.83;;;;;;;5.53;58.68;99242.88;5115388;27;42176;-76
2022/04/18 05:23:46;;;;;;;2.30;2.00;;;;;;;5.62;58.39;99252.19;5115000;27;39208;-76
2022/04/18 05:26:13;;;;;;;2.03;1.70;;;;;;;5.73;58.42;99250.00;5119891;27;41670;-75
2022/04/18 05:28:43;;;;;;;1.53;1.43;;;;;;;5.85;59.14;99244.31;5111595;28;42584;-76
2022/04/18 05:31:11;;;;;;;2.77;2.03;;;;;;;6.04;58.77;99250.63;5111719;28;42946;-75
2022/04/18 05:33:40;;;;;;;2.80;1.90;;;;;;;6.23;58.33;99252.56;5111672;28;39991;-76
2022/04/18 05:36:29;;;;;;;1.73;1.60;;;;;;;6.47;57.59;99255.09;5113042;28;43339;-75
2022/04/18 05:38:57;;;;;;;2.63;1.90;;;;;;;6.70;57.01;99253.28;5094847;28;42080;-76
2022/04/18 05:41:39;;;;;;;2.47;1.67;;;;;;;6.86;56.49;99264.94;5108917;28;43187;-76
2022/04/18 05:44:07;;;;;;;2.17;1.80;;;;;;;7.04;56.48;99260.69;5099721;28;41523;-76
2022/04/18 05:46:45;;;;;;;2.83;2.30;;;;;;;7.14;56.47;99254.97;5099708;28;40738;-75
2022/04/18 05:49:12;;;;;;;2.47;2.07;;;;;;;7.24;56.13;99263.34;5099862;28;42617;-76
2022/04/18 05:51:42;;;;;;;3.40;1.50;;;;;;;7.32;55.56;99269.13;5116430;28;42408;-76
2022/04/18 05:54:11;;;;;;;2.33;1.80;;;;;;;7.45;55.67;99266.81;5099069;28;38892;-77
2022/04/18 05:57:01;;;;;;;3.70;2.00;;;;;;;7.54;55.15;99267.25;5113993;28;42646;-76
2022/04/18 05:59:38;;;;;;;2.13;1.67;;;;;;;7.58;55.19;99271.50;5094067;28;42668;-75
2022/04/18 06:02:13;;;;;;;2.10;1.90;;;;;;;7.70;55.09;99266.59;5094233;28;42114;-76
2022/04/18 06:04:48;;;;;;;2.60;2.03;;;;;;;7.94;54.40;99262.88;5094325;28;41922;-75
2022/04/18 06:07:20;;;;;;;2.70;1.70;;;;;;;8.38;53.81;99274.06;5110940;28;41954;-75
2022/04/18 06:09:59;;;;;;;2.90;1.93;;;;;;;8.62;53.18;99275.53;5107946;28;43866;-76
2022/04/18 06:12:29;;;;;;;2.80;2.10;;;;;;;8.71;53.04;99274.22;5093861;28;41328;-76
2022/04/18 06:14:57;;;;;;;2.03;1.80;;;;;;;8.85;52.51;99282.34;5111095;28;39853;-76
2022/04/18 06:17:24;;;;;;;3.23;2.20;;;;;;;8.81;52.74;99259.66;5093606;28;41934;-76
2022/04/18 06:19:56;;;;;;;2.20;2.00;;;;;;;8.93;52.68;99274.03;5094060;28;41852;-76
2022/04/18 06:22:26;;;;;;;2.70;2.20;;;;;;;9.15;52.43;99279.13;5110517;27;42484;-77
2022/04/18 06:24:55;;;;;;;2.27;1.80;;;;;;;9.55;51.72;99273.50;5094510;28;39137;-76
2022/04/18 06:27:28;;;;;;;2.47;2.10;;;;;;;10.06;50.68;99284.94;5112666;27;42587;-77
2022/04/18 06:29:57;;;;;;;3.20;1.80;;;;;;;10.38;49.92;99289.38;5114175;27;41773;-76
2022/04/18 06:32:25;;;;;;;3.03;1.87;;;;;;;10.55;49.82;99290.22;5113767;27;41317;-75
2022/04/18 06:34:56;;;;;;;2.33;2.03;;;;;;;10.55;49.84;99288.44;5114155;27;39964;-75
2022/04/18 06:37:29;;;;;;;1.83;1.73;;;;;;;10.53;50.59;99278.88;5114063;27;42193;-75
2022/04/18 06:40:15;;;;;;;2.40;2.20;;;;;;;10.55;50.61;99279.63;5130859;27;43329;-76
2022/04/18 06:42:46;;;;;;;2.00;1.80;;;;;;;10.59;50.31;99289.13;5114326;27;41140;-76
2022/04/18 06:45:24;;;;;;;1.77;1.60;;;;;;;10.65;51.09;99273.75;5114370;27;40407;-76
2022/04/18 06:47:52;;;;;;;2.67;2.07;;;;;;;10.78;50.67;99280.06;5114015;27;40760;-76
2022/04/18 06:50:24;;;;;;;2.60;1.97;;;;;;;11.00;49.83;99290.28;5114401;27;41454;-76
2022/04/18 06:53:12;;;;;;;1.83;1.73;;;;;;;11.31;48.68;99299.13;5130751;27;41609;-76
2022/04/18 06:58:56;;;;;;;2.77;2.00;;;;;;;11.66;47.17;99300.53;5130461;27;42864;-76
2022/04/18 07:01:26;;;;;;;1.97;1.87;;;;;;;11.81;46.08;99309.44;5131342;27;42954;-77
2022/04/18 07:03:53;;;;;;;2.43;1.70;;;;;;;11.93;47.42;99297.22;5113679;27;42213;-77
2022/04/18 07:06:21;;;;;;;2.23;2.03;;;;;;;12.03;46.05;99285.94;5113887;27;38999;-75
2022/04/18 07:08:50;;;;;;;1.90;1.70;;;;;;;12.56;45.82;99309.16;5113610;27;41796;-78
2022/04/18 07:11:56;;;;;;;1.90;1.50;;;;;;;13.30;44.08;99295.47;5092411;28;41740;-76
2022/04/18 07:14:26;;;;;;;2.13;1.93;;;;;;;14.19;42.73;99327.53;5074868;28;41217;-75
2022/04/18 07:16:58;;;;;;;2.20;1.60;;;;;;;14.62;41.25;99328.03;5109494;27;40076;-77
2022/04/18 07:19:28;;;;;;;3.60;1.83;;;;;;;14.86;40.94;99337.88;5113105;27;40972;-75
2022/04/18 07:21:57;;;;;;;1.97;1.83;;;;;;;14.92;41.43;99334.78;5130704;27;43897;-77
2022/04/18 07:24:27;;;;;;;2.50;2.23;;;;;;;15.02;40.57;99335.81;5130246;27;42307;-73
2022/04/18 07:27:00;;;;;;;3.40;2.20;;;;;;;15.45;39.83;99342.34;5127841;27;40779;-76
2022/04/18 07:29:29;;;;;;;3.93;2.10;;;;;;;16.40;38.33;99343.97;5130101;27;42360;-75
2022/04/18 07:31:57;;;;;;;2.23;2.00;;;;;;;17.64;36.61;99356.22;5124043;27;42791;-77
2022/04/18 07:34:25;;;;;;;2.17;1.87;;;;;;;18.27;33.74;99366.00;5092789;28;40811;-76
2022/04/18 07:36:54;;;;;;;2.27;1.70;;;;;;;18.54;34.26;99369.97;5096494;28;40308;-74
2022/04/18 07:39:21;;;;;;;1.90;1.70;;;;;;;18.64;33.90;99368.19;5096190;28;40470;-74
2022/04/18 07:41:55;;;;;;;2.37;1.73;;;;;;;18.71;33.44;99374.72;5096687;28;41596;-73
2022/04/18 07:44:28;;;;;;;1.80;1.70;;;;;;;18.87;33.01;99379.59;5096426;28;42275;-75
2022/04/18 07:46:58;;;;;;;2.40;2.00;;;;;;;19.06;32.22;99384.16;5096444;28;39021;-75
2022/04/18 07:49:30;;;;;;;1.90;1.43;;;;;;;19.53;31.07;99383.47;5112838;28;41704;-76
2022/04/18 07:51:57;;;;;;;2.17;1.80;;;;;;;20.11;31.78;99378.09;5096275;28;42575;-75
2022/04/18 07:54:32;;;;;;;2.87;1.83;;;;;;;20.47;29.09;99389.09;5096533;28;42379;-75
2022/04/18 07:57:04;;;;;;;1.90;1.73;;;;;;;20.75;29.08;99386.31;5096043;28;40149;-78
2022/04/18 07:59:52;;;;;;;1.97;1.77;;;;;;;21.44;27.22;99411.94;5110067;28;41478;-74
2022/04/18 08:02:19;;;;;;;2.43;1.50;;;;;;;22.52;25.49;99411.75;5113335;28;43645;-75
2022/04/18 08:05:08;;;;;;;1.90;1.50;;;;;;;23.21;25.10;99421.66;5096327;28;42290;-73
2022/04/18 08:07:50;;;;;;;1.50;1.37;;;;;;;23.23;25.25;99408.84;5096097;28;38864;-75
2022/04/18 08:10:18;;;;;;;2.20;1.80;;;;;;;23.69;26.57;99396.66;5096106;28;42020;-74
2022/04/18 08:12:48;;;;;;;1.60;1.50;;;;;;;24.16;24.52;99412.25;5095532;28;42687;-74
2022/04/18 08:15:34;;;;;;;1.70;1.60;;;;;;;24.10;24.49;99412.94;5114251;28;42864;-76
2022/04/18 08:18:02;;;;;;;1.67;1.57;;;;;;;24.22;24.61;99411.59;5095850;28;39668;-75
2022/04/18 08:20:46;;;;;;;2.37;1.70;;;;;;;25.18;23.29;99420.59;5095889;28;41957;-76
2022/04/18 08:23:14;;;;;;;1.67;1.50;;;;;;;26.23;22.52;99407.44;5095552;28;41779;-74
2022/04/18 08:26:01;;;;;;;1.80;1.70;;;;;;;27.40;20.51;99431.22;5111102;28;43210;-76
2022/04/18 08:28:46;;;;;;;2.20;2.00;;;;;;;28.09;19.67;99424.31;5095490;28;40583;-78
2022/04/18 08:31:14;;;;;;;2.43;1.70;;;;;;;28.46;19.70;99433.25;5112767;28;42585;-76
2022/04/18 08:33:56;;;;;;;2.30;2.10;;;;;;;28.94;19.77;99421.50;5095465;28;41834;-76
2022/04/18 08:36:24;;;;;;;2.23;2.03;;;;;;;29.39;18.96;99427.47;5126417;27;43284;-76
2022/04/18 08:38:54;;;;;;;1.67;1.57;;;;;;;29.75;19.12;99420.88;5115893;27;39549;-77
2022/04/18 08:41:45;;;;;;;2.47;1.90;;;;;;;30.70;18.21;99423.34;5132827;27;40144;-77
2022/04/18 08:44:26;;;;;;;2.00;1.90;;;;;;;31.76;16.71;99424.78;5132703;27;42820;-77
2022/04/18 08:46:57;;;;;;;2.27;2.07;;;;;;;32.05;15.58;99444.41;5129929;27;42139;-77
2022/04/18 08:55:11;;;;;;;2.30;2.10;;;;;;;32.18;14.75;99446.22;5133307;27;42966;-78
2022/04/18 08:57:39;;;;;;;3.10;2.40;;;;;;;32.07;15.20;99425.84;5115655;27;42482;-78
2022/04/18 09:00:12;;;;;;;3.37;2.20;;;;;;;31.90;15.30;99428.28;5133627;27;39762;-75
2022/04/18 09:02:45;;;;;;;2.43;1.90;;;;;;;31.80;14.79;99429.81;5115680;27;40976;-75
2022/04/18 09:05:27;;;;;;;2.27;2.07;;;;;;;31.98;15.06;99427.19;5130083;27;42492;-76
2022/04/18 09:07:59;;;;;;;3.13;2.10;;;;;;;32.46;14.83;99417.38;5132324;27;42639;-76
2022/04/18 09:10:30;;;;;;;2.33;2.00;;;;;;;32.43;15.11;99409.59;5115770;27;40088;-78
2022/04/18 09:13:05;;;;;;;2.00;1.90;;;;;;;32.08;14.75;99411.94;5132630;27;41906;-76
2022/04/18 09:16:00;;;;;;;3.07;2.30;;;;;;;31.46;14.81;99411.81;5131611;27;43704;-78
2022/04/18 09:18:29;;;;;;;2.77;2.57;;;;;;;30.62;14.79;99405.28;5132443;27;42452;-76
2022/04/18 09:21:05;;;;;;;2.37;2.17;;;;;;;29.54;16.01;99392.69;5129549;27;39711;-75
2022/04/18 09:23:39;;;;;;;2.40;2.20;;;;;;;29.36;15.85;99384.16;5132794;27;41980;-76
2022/04/18 09:26:18;;;;;;;2.13;1.93;;;;;;;29.12;16.49;99379.22;5129535;27;42847;-75
2022/04/18 09:28:46;;;;;;;2.30;1.90;;;;;;;28.86;17.55;99367.13;5132181;27;42118;-77
2022/04/18 09:31:20;;;;;;;2.30;1.97;;;;;;;28.67;16.43;99365.09;5115701;27;39056;-77
2022/04/18 09:33:55;;;;;;;2.13;1.90;;;;;;;28.68;16.93;99358.63;5131242;27;42713;-78
2022/04/18 09:36:25;;;;;;;3.30;1.90;;;;;;;29.06;16.56;99361.78;5115542;27;41678;-76
2022/04/18 09:38:55;;;;;;;1.97;1.83;;;;;;;29.19;16.21;99364.56;5131241;27;42332;-78
2022/04/18 09:41:30;;;;;;;2.20;1.77;;;;;;;28.52;16.61;99350.72;5123093;27;40883;-77
2022/04/18 09:44:02;;;;;;;1.63;1.53;;;;;;;27.84;17.17;99346.75;5110780;28;41607;-74
2022/04/18 09:46:36;;;;;;;1.90;1.60;;;;;;;27.51;17.50;99340.97;5108656;28;43115;-77
2022/04/18 09:49:09;;;;;;;3.10;2.00;;;;;;;27.86;17.39;99345.53;5110796;28;42024;-77
2022/04/18 09:51:43;;;;;;;2.00;1.70;;;;;;;27.87;17.46;99313.72;5108632;28;40611;-75
2022/04/18 09:54:20;;;;;;;2.20;1.60;;;;;;;27.72;17.96;99304.78;5094220;28;41049;-76
2022/04/18 09:56:52;;;;;;;1.70;1.60;;;;;;;27.50;17.93;99307.47;5111347;27;43708;-75
2022/04/18 09:59:20;;;;;;;2.37;1.77;;;;;;;26.78;18.55;99312.00;5110207;28;42361;-75
2022/04/18 10:01:50;;;;;;;2.20;1.50;;;;;;;26.38;19.33;99305.16;5111479;28;39810;-78
2022/04/18 10:04:18;;;;;;;1.97;1.80;;;;;;;26.15;20.48;99297.03;5094196;28;40764;-77
2022/04/18 10:06:46;;;;;;;3.23;2.03;;;;;;;25.91;19.86;99297.25;5094358;28;42932;-76
2022/04/18 10:09:15;;;;;;;1.60;1.50;;;;;;;25.65;19.88;99286.78;5110987;28;42462;-75
2022/04/18 10:11:44;;;;;;;2.63;1.60;;;;;;;25.50;20.38;99299.41;5111261;28;40111;-78
2022/04/18 10:14:13;;;;;;;1.97;1.60;;;;;;;25.75;19.98;99277.38;5110957;28;41906;-74
2022/04/18 10:16:41;;;;;;;1.57;1.47;;;;;;;26.64;20.52;99283.81;5093848;28;42547;-75
2022/04/18 10:19:22;;;;;;;1.80;1.50;;;;;;;27.34;19.44;99295.97;5093156;28;41100;-75
2022/04/18 10:21:55;;;;;;;2.73;1.57;;;;;;;27.76;19.65;99284.31;5094269;28;39049;-76
2022/04/18 10:24:46;;;;;;;2.03;1.80;;;;;;;28.48;18.32;99289.50;5110862;28;41618;-75
2022/04/18 10:27:47;;;;;;;2.13;1.93;;;;;;;30.03;16.29;99306.88;5109240;28;42763;-78
2022/04/18 10:30:16;;;;;;;1.90;1.70;;;;;;;31.78;15.09;99315.81;5111279;28;43234;-76
2022/04/18 10:32:47;;;;;;;1.70;1.60;;;;;;;33.37;13.58;99322.53;5111002;28;39914;-76
2022/04/18 10:35:16;;;;;;;1.88;1.70;;;;;;;34.89;13.56;99304.38;5113251;27;42447;-76
2022/04/18 10:37:44;;;;;;;2.83;1.60;;;;;;;35.82;11.76;99325.31;5112059;28;42647;-76
2022/04/18 10:40:17;;;;;;;1.60;1.17;;;;;;;35.74;12.49;99318.25;5112216;28;43064;-77
2022/04/18 10:42:45;;;;;;;1.42;1.33;;;;;;;35.50;12.29;99311.16;5111086;28;38771;-76
2022/04/18 10:45:14;;;;;;;1.73;1.63;;;;;;;35.06;12.10;99321.00;5111184;28;42102;-80
2022/04/18 10:48:13;;;;;;;1.77;1.60;;;;;;;35.89;11.23;99317.72;5110909;28;42698;-76
2022/04/18 10:50:47;;;;;;;1.90;1.80;;;;;;;36.77;11.37;99305.09;5035605;28;42369;-79
2022/04/18 10:53:19;;;;;;;2.40;1.60;;;;;;;36.95;11.51;99302.88;5115925;27;41843;-79
2022/04/18 10:56:15;;;;;;;1.92;1.77;;;;;;;36.73;12.11;99290.94;5109279;28;41671;-77
2022/04/18 10:58:45;;;;;;;1.63;1.52;;;;;;;37.24;11.13;99295.22;5110547;28;42819;-79
2022/04/18 11:01:15;;;;;;;1.38;1.27;;;;;;;37.62;11.83;99290.66;5108760;28;42151;-76
2022/04/18 11:03:46;;;;;;;1.48;1.20;;;;;;;37.30;11.53;99294.19;5111935;28;39949;-75
2022/04/18 11:06:47;;;;;;;1.47;1.37;;;;;;;37.04;10.97;99286.66;5107579;28;41823;-78
2022/04/18 11:09:17;;;;;;;1.50;1.10;;;;;;;36.49;11.19;99284.78;5104978;28;42743;-76
2022/04/18 11:11:48;;;;;;;3.80;1.50;;;;;;;36.20;12.20;99262.00;5115401;28;41915;-77
2022/04/18 11:14:18;;;;;;;2.03;1.43;;;;;;;36.21;11.85;99268.34;5131239;27;40678;-76
2022/04/18 11:16:54;;;;;;;1.53;1.43;;;;;;;36.39;11.67;99265.31;5115287;28;42031;-78
2022/04/18 11:19:24;;;;;;;1.30;1.17;;;;;;;35.88;11.46;99231.41;5114752;28;43103;-80
2022/04/18 11:22:22;;;;;;;0.87;0.87;;;;;;;35.81;12.17;99252.81;5113877;28;41756;-79
2022/04/18 11:25:02;;;;;;;3.77;1.33;;;;;;;35.43;11.58;99249.88;5097442;28;39020;-81
2022/04/18 11:27:38;;;;;;;1.47;1.37;;;;;;;35.07;12.69;99251.09;5110690;28;42707;-77
2022/04/18 11:30:09;;;;;;;2.80;1.60;;;;;;;34.45;12.66;99240.69;5114193;28;41665;-78
2022/04/18 11:32:39;;;;;;;1.70;1.33;;;;;;;33.89;14.60;99214.59;5110387;28;42324;-75
2022/04/18 11:35:09;;;;;;;1.43;1.33;;;;;;;34.37;13.08;99232.78;5113916;28;40266;-77
2022/04/18 11:37:40;;;;;;;1.87;1.40;;;;;;;35.14;12.08;99214.06;5096794;28;42812;-79
2022/04/18 11:40:10;;;;;;;3.30;1.27;;;;;;;36.04;12.47;99213.19;5111878;28;42709;-79
2022/04/18 11:42:39;;;;;;;3.47;1.53;;;;;;;36.12;11.47;99236.75;5096371;28;41244;-78
2022/04/18 11:45:09;;;;;;;1.53;1.43;;;;;;;36.40;12.77;99222.84;5114682;28;41834;-79
2022/04/18 11:47:41;;;;;;;1.40;1.20;;;;;;;37.55;11.78;99229.22;5114444;28;42804;-78
2022/04/18 11:50:10;;;;;;;1.05;1.00;;;;;;;37.86;11.85;99222.88;5111734;28;43792;-79
2022/04/18 11:52:41;;;;;;;2.00;1.35;;;;;;;38.52;10.87;99234.44;5096380;28;43299;-79
2022/04/18 11:55:11;;;;;;;1.42;1.38;;;;;;;39.05;10.23;99238.88;5096652;28;39192;-78
2022/04/18 11:57:40;;;;;;;1.20;1.10;;;;;;;39.16;10.49;99239.75;5096153;28;41061;-76
2022/04/18 12:00:10;;;;;;;1.40;1.30;;;;;;;39.12;9.80;99228.38;5114783;28;43848;-78
2022/04/18 12:08:14;;;;;;;1.85;1.25;;;;;;;40.66;9.66;99222.56;5095808;28;42032;-80
2022/04/18 12:10:42;;;;;;;1.65;1.30;;;;;;;40.44;9.63;99216.50;5096184;28;41762;-78
2022/04/18 12:13:11;;;;;;;1.45;1.35;;;;;;;40.62;9.00;99215.91;5112642;28;41263;-78
2022/04/18 12:15:40;;;;;;;1.30;1.20;;;;;;;40.41;8.95;99211.53;5096367;28;39695;-76
2022/04/18 12:18:10;;;;;;;1.30;1.20;;;;;;;41.04;9.99;99201.56;5114211;28;42604;-79
2022/04/18 12:20:42;;;;;;;1.00;1.00;;;;;;;41.42;9.30;99188.81;5112845;27;41612;-76
2022/04/18 12:23:10;;;;;;;1.20;1.10;;;;;;;41.79;8.42;99199.38;5112850;28;41251;-76
2022/04/18 12:25:45;;;;;;;1.20;1.10;;;;;;;42.17;8.68;99183.75;5113413;28;39007;-77